createdAt,value
2023-01-12T00:02:17.797Z,11.18
2023-01-12T00:05:03.835Z,10.82
2023-01-12T00:07:49.726Z,9.32
2023-01-12T00:10:35.455Z,9.45
2023-01-12T00:13:21.021Z,12.45
2023-01-12T00:16:26.260Z,10.75
2023-01-12T00:19:17.080Z,7.80
2023-01-12T00:22:07.168Z,11.60
2023-01-12T00:24:55.104Z,9.68
2023-01-12T00:27:40.638Z,10.20
2023-01-12T00:30:26.398Z,18.80
2023-01-12T00:33:12.031Z,20.00
2023-01-12T00:35:57.593Z,28.88
2023-01-12T00:38:43.489Z,31.27
2023-01-12T00:41:47.697Z,32.53
2023-01-12T00:44:53.184Z,31.80
2023-01-12T00:47:39.252Z,27.20
2023-01-12T00:50:25.056Z,29.17
2023-01-12T00:53:10.763Z,32.78
2023-01-12T00:56:01.578Z,32.13
2023-01-12T00:58:47.371Z,35.60
2023-01-12T01:01:34.645Z,31.25
2023-01-12T01:04:20.530Z,30.95
2023-01-12T01:07:06.472Z,32.25
2023-01-12T01:09:52.112Z,31.63
2023-01-12T01:12:37.867Z,36.38
2023-01-12T01:15:23.476Z,34.53
2023-01-12T01:18:09.016Z,32.30
2023-01-12T01:20:55.119Z,35.42
2023-01-12T01:23:41.797Z,37.03
2023-01-12T01:26:27.776Z,22.98
2023-01-12T01:29:13.967Z,31.27
2023-01-12T01:31:59.578Z,31.10
2023-01-12T01:34:46.538Z,33.58
2023-01-12T01:37:32.419Z,36.25
2023-01-12T01:40:18.117Z,36.83
2023-01-12T01:43:04.119Z,36.83
2023-01-12T01:46:05.675Z,32.17
2023-01-12T01:48:51.619Z,16.17
2023-01-12T01:51:37.359Z,9.65
2023-01-12T01:54:23.659Z,9.18
2023-01-12T01:57:11.026Z,8.98
2023-01-12T01:59:59.940Z,10.52
2023-01-12T02:02:46.745Z,10.50
2023-01-12T02:05:32.993Z,8.88
2023-01-12T02:08:39.576Z,12.07
2023-01-12T02:11:44.236Z,10.85
2023-01-12T02:14:49.484Z,8.68
2023-01-12T02:17:55.432Z,11.80
2023-01-12T02:20:56.481Z,8.65
2023-01-12T02:23:48.601Z,9.73
2023-01-12T02:27:03.830Z,8.07
2023-01-12T02:30:21.517Z,8.63
2023-01-12T02:33:16.930Z,9.45
2023-01-12T02:36:11.840Z,7.50
2023-01-12T02:39:07.579Z,8.52
2023-01-12T02:42:42.761Z,8.63
2023-01-12T02:45:57.395Z,8.07
2023-01-12T02:48:55.834Z,8.77
2023-01-12T02:51:48.211Z,7.72
2023-01-12T02:54:34.671Z,7.57
2023-01-12T02:57:22.113Z,8.63
2023-01-12T03:00:09.147Z,7.75
2023-01-12T03:02:54.878Z,8.18
2023-01-12T03:05:45.207Z,8.68
2023-01-12T03:08:32.373Z,9.98
2023-01-12T03:11:20.679Z,9.00
2023-01-12T03:14:07.076Z,6.68
2023-01-12T03:16:54.714Z,8.30
2023-01-12T03:19:42.103Z,8.77
2023-01-12T03:22:28.630Z,8.32
2023-01-12T03:25:17.686Z,8.35
2023-01-12T03:28:05.198Z,7.22
2023-01-12T03:31:02.721Z,6.38
2023-01-12T03:33:48.363Z,6.70
2023-01-12T03:36:55.805Z,7.13
2023-01-12T03:40:17.855Z,7.55
2023-01-12T03:43:06.307Z,7.47
2023-01-12T03:45:57.101Z,8.40
2023-01-12T03:48:53.375Z,9.48
2023-01-12T03:51:42.588Z,7.15
2023-01-12T03:54:29.270Z,6.40
2023-01-12T03:57:15.460Z,8.05
2023-01-12T04:00:03.195Z,7.90
2023-01-12T04:03:13.151Z,6.53
2023-01-12T04:05:59.127Z,6.38
2023-01-12T04:08:44.821Z,6.53
2023-01-12T04:11:49.258Z,6.55
2023-01-12T04:14:35.306Z,7.03
2023-01-12T04:17:25.096Z,6.85
2023-01-12T04:20:11.523Z,9.02
2023-01-12T04:22:57.487Z,6.65
2023-01-12T04:25:43.240Z,8.48
2023-01-12T04:28:29.021Z,7.63
2023-01-12T04:31:16.161Z,7.75
2023-01-12T04:34:02.138Z,7.28
2023-01-12T04:36:48.146Z,7.07
2023-01-12T04:39:33.807Z,7.90
2023-01-12T04:42:38.353Z,7.85
2023-01-12T04:45:24.268Z,6.28
2023-01-12T04:48:12.071Z,7.30
2023-01-12T04:50:59.645Z,6.25
2023-01-12T04:53:48.198Z,7.47
2023-01-12T04:56:34.053Z,5.47
2023-01-12T04:59:19.962Z,8.30
2023-01-12T05:02:05.910Z,18.77
2023-01-12T05:04:51.581Z,7.55
2023-01-12T05:07:37.387Z,6.88
2023-01-12T05:10:23.053Z,6.07
2023-01-12T05:13:08.695Z,7.93
2023-01-12T05:15:54.475Z,6.28
2023-01-12T05:18:40.494Z,7.60
2023-01-12T05:21:26.037Z,7.03
2023-01-12T05:24:11.895Z,6.65
2023-01-12T05:26:57.629Z,6.13
2023-01-12T05:29:43.271Z,6.13
2023-01-12T05:32:29.087Z,6.80
2023-01-12T05:35:14.686Z,6.88
2023-01-12T05:38:00.296Z,7.13
2023-01-12T05:40:46.047Z,8.77
2023-01-12T05:43:50.297Z,8.70
2023-01-12T05:46:40.246Z,8.05
2023-01-12T05:49:26.102Z,9.93
2023-01-12T05:52:11.756Z,26.60
2023-01-12T05:54:57.371Z,25.52
2023-01-12T05:57:43.240Z,35.63
2023-01-12T06:00:29.327Z,36.20
2023-01-12T06:03:15.415Z,15.55
2023-01-12T06:06:01.588Z,16.88
2023-01-12T06:08:47.537Z,16.27
2023-01-12T06:11:52.069Z,23.27
2023-01-12T06:14:38.293Z,19.85
2023-01-12T06:17:23.876Z,27.40
2023-01-12T06:20:10.636Z,30.17
2023-01-12T06:23:00.554Z,42.40
2023-01-12T06:25:46.573Z,38.67
2023-01-12T06:28:32.303Z,41.88
2023-01-12T06:31:17.885Z,54.58
2023-01-12T06:34:03.501Z,46.00
2023-01-12T06:36:49.492Z,40.08
2023-01-12T06:39:35.269Z,45.83
2023-01-12T06:42:30.111Z,57.65
2023-01-12T06:45:15.794Z,56.75
2023-01-12T06:48:01.549Z,52.17
2023-01-12T06:50:47.287Z,58.72
2023-01-12T06:53:33.029Z,59.95
2023-01-12T06:56:18.751Z,59.28
2023-01-12T06:59:05.692Z,47.95
2023-01-12T07:01:51.970Z,50.50
2023-01-12T07:04:38.346Z,46.85
2023-01-12T07:07:24.113Z,42.42
2023-01-12T07:10:11.324Z,50.33
2023-01-12T07:13:00.300Z,48.05
2023-01-12T07:15:46.188Z,47.85
2023-01-12T07:18:31.979Z,42.17
2023-01-12T07:21:19.615Z,71.07
2023-01-12T07:24:05.454Z,52.15
2023-01-12T07:26:52.421Z,61.28
2023-01-12T07:29:37.986Z,57.35
2023-01-12T07:32:26.587Z,49.95
2023-01-12T07:35:12.364Z,57.97
2023-01-12T07:37:58.341Z,56.00
2023-01-12T07:40:44.095Z,62.90
2023-01-12T07:43:30.563Z,82.57
2023-01-12T07:46:16.636Z,96.32
2023-01-12T07:49:02.395Z,167.30
2023-01-12T07:51:48.111Z,95.40
2023-01-12T07:54:36.099Z,75.55
2023-01-12T07:57:21.960Z,79.88
2023-01-12T08:00:09.485Z,71.03
2023-01-12T08:03:11.623Z,72.00
2023-01-12T08:05:58.027Z,85.22
2023-01-12T08:08:44.267Z,68.55
2023-01-12T08:11:31.409Z,68.75
2023-01-12T08:14:28.593Z,59.88
2023-01-12T08:17:17.925Z,55.00
2023-01-12T08:20:17.882Z,56.53
2023-01-12T08:23:10.915Z,56.53
2023-01-12T08:26:00.963Z,53.95
2023-01-12T08:29:06.736Z,50.53
2023-01-12T08:31:52.517Z,56.00
2023-01-12T08:34:41.998Z,52.60
2023-01-12T08:37:29.185Z,74.07
2023-01-12T08:40:15.410Z,60.22
2023-01-12T08:43:01.449Z,63.35
2023-01-12T08:45:47.178Z,50.05
2023-01-12T08:48:32.983Z,48.33
2023-01-12T08:51:18.601Z,43.58
2023-01-12T08:54:04.222Z,51.13
2023-01-12T08:56:50.250Z,61.58
2023-01-12T08:59:37.092Z,52.03
2023-01-12T09:02:25.265Z,46.15
2023-01-12T09:05:11.273Z,48.88
2023-01-12T09:07:56.978Z,55.03
2023-01-12T09:10:42.735Z,48.35
2023-01-12T09:13:28.472Z,46.17
2023-01-12T09:16:15.557Z,44.63
2023-01-12T09:19:01.734Z,44.17
2023-01-12T09:21:47.563Z,44.80
2023-01-12T09:24:34.208Z,57.38
2023-01-12T09:27:20.166Z,23.08
2023-01-12T09:30:07.460Z,16.65
2023-01-12T09:32:55.322Z,14.55
2023-01-12T09:35:44.466Z,12.75
2023-01-12T09:38:30.272Z,14.88
2023-01-12T09:41:49.111Z,9.82
2023-01-12T09:44:59.783Z,14.48
2023-01-12T09:47:56.290Z,14.43
2023-01-12T09:51:04.661Z,11.52
2023-01-12T09:53:50.625Z,8.38
2023-01-12T09:56:51.863Z,12.75
2023-01-12T09:59:48.773Z,8.27
2023-01-12T10:02:36.368Z,11.80
2023-01-12T10:05:46.275Z,28.33
2023-01-12T10:08:51.345Z,22.10
2023-01-12T10:12:01.059Z,9.93
2023-01-12T10:15:04.975Z,8.68
2023-01-12T10:18:09.914Z,9.07
2023-01-12T10:20:55.881Z,7.03
2023-01-12T10:23:42.611Z,16.77
2023-01-12T10:26:37.163Z,14.10
2023-01-12T10:29:24.360Z,8.00
2023-01-12T10:32:12.967Z,9.07
2023-01-12T10:34:59.974Z,12.88
2023-01-12T10:37:52.615Z,7.25
2023-01-12T10:40:38.945Z,9.68
2023-01-12T10:43:31.934Z,12.55
2023-01-12T10:46:21.418Z,9.88
2023-01-12T10:49:23.923Z,17.77
2023-01-12T10:52:11.257Z,20.73
2023-01-12T10:54:58.978Z,21.23
2023-01-12T10:57:47.748Z,22.88
2023-01-12T11:00:34.313Z,9.68
2023-01-12T11:03:38.061Z,13.75
2023-01-12T11:06:31.008Z,10.95
2023-01-12T11:09:21.765Z,51.10
2023-01-12T11:12:34.919Z,24.95
2023-01-12T11:15:21.063Z,36.33
2023-01-12T11:18:52.646Z,28.02
2023-01-12T11:21:42.243Z,16.25
2023-01-12T11:24:43.328Z,49.75
2023-01-12T11:27:36.235Z,34.20
2023-01-12T11:30:31.367Z,14.80
2023-01-12T11:33:22.818Z,12.48
2023-01-12T11:36:20.799Z,6.90
2023-01-12T11:39:13.154Z,17.10
2023-01-12T11:42:19.550Z,13.10
2023-01-12T11:45:14.190Z,4.82
2023-01-12T11:48:05.649Z,5.03
2023-01-12T11:50:53.634Z,7.25
2023-01-12T11:53:41.565Z,10.75
2023-01-12T11:56:52.045Z,14.02
2023-01-12T11:59:40.245Z,16.75
2023-01-12T12:02:55.906Z,30.88
2023-01-12T12:05:58.783Z,17.98
2023-01-12T12:09:22.750Z,14.82
2023-01-12T12:12:46.481Z,9.20
2023-01-12T12:15:34.852Z,9.43
2023-01-12T12:18:50.188Z,8.77
2023-01-12T12:21:59.283Z,10.68
2023-01-12T12:25:05.800Z,11.20
2023-01-12T12:28:10.336Z,22.15
2023-01-12T12:31:13.860Z,8.98
2023-01-12T12:34:11.753Z,8.50
2023-01-12T12:37:06.944Z,10.15
2023-01-12T12:39:57.729Z,10.60
2023-01-12T12:43:37.569Z,22.27
2023-01-12T12:46:36.048Z,18.20
2023-01-12T12:49:26.604Z,10.90
2023-01-12T12:52:12.926Z,10.75
2023-01-12T12:54:59.427Z,15.40
2023-01-12T12:58:03.618Z,8.07
2023-01-12T13:03:39.855Z,7.95
2023-01-12T13:06:25.634Z,16.75
2023-01-12T13:09:17.288Z,12.57
2023-01-12T13:12:03.029Z,9.27
2023-01-12T13:15:32.583Z,10.45
2023-01-12T13:18:42.575Z,7.03
2023-01-12T13:21:31.144Z,7.97
2023-01-12T13:24:23.764Z,15.75
2023-01-12T13:27:47.290Z,22.58
2023-01-12T13:30:34.324Z,14.70
2023-01-12T13:33:29.074Z,12.38
2023-01-12T13:36:30.889Z,13.30
2023-01-12T13:39:17.035Z,33.80
2023-01-12T13:42:22.485Z,44.38
2023-01-12T13:45:17.281Z,21.98
2023-01-12T13:48:05.824Z,21.65
2023-01-12T13:50:55.667Z,18.20
2023-01-12T13:53:41.785Z,12.68
2023-01-12T13:56:28.002Z,12.75
2023-01-12T13:59:18.747Z,20.75
2023-01-12T14:02:04.849Z,27.20
2023-01-12T14:04:59.690Z,9.02
2023-01-12T14:08:00.269Z,11.15
2023-01-12T14:10:58.273Z,12.05
2023-01-12T14:13:53.162Z,16.17
2023-01-12T14:17:04.955Z,12.80
2023-01-12T14:19:51.771Z,18.98
2023-01-12T14:22:37.626Z,15.18
2023-01-12T14:25:25.961Z,12.70
2023-01-12T14:28:20.485Z,14.05
2023-01-12T14:31:08.606Z,7.90
2023-01-12T14:33:57.340Z,9.02
2023-01-12T14:36:44.803Z,8.43
2023-01-12T14:39:36.758Z,16.30
2023-01-12T14:42:42.351Z,16.67
2023-01-12T14:45:47.580Z,8.75
2023-01-12T14:48:34.602Z,8.43
2023-01-12T14:51:40.221Z,9.07
2023-01-12T14:54:28.536Z,27.70
2023-01-12T14:57:23.580Z,14.43
2023-01-12T15:00:21.517Z,10.80
2023-01-12T15:03:26.328Z,12.30
2023-01-12T15:06:15.805Z,11.75
2023-01-12T15:09:02.042Z,13.68
2023-01-12T15:11:47.754Z,10.38
2023-01-12T15:14:33.600Z,9.52
2023-01-12T15:17:38.069Z,11.93
2023-01-12T15:20:43.564Z,10.43
2023-01-12T15:23:53.118Z,8.48
2023-01-12T15:27:29.368Z,8.25
2023-01-12T15:35:26.793Z,10.77
2023-01-12T15:43:18.789Z,5.13
2023-01-12T15:47:16.521Z,5.85
2023-01-12T15:50:02.685Z,7.32
2023-01-12T15:52:49.241Z,9.30
2023-01-12T15:55:36.184Z,12.80
2023-01-12T15:58:22.458Z,6.45
2023-01-12T16:01:10.716Z,13.10
2023-01-12T16:04:25.020Z,8.27
2023-01-12T16:07:11.991Z,7.00
2023-01-12T16:11:13.554Z,13.13
2023-01-12T16:14:08.558Z,15.15
2023-01-12T16:16:54.728Z,8.32
2023-01-12T16:19:43.903Z,14.63
2023-01-12T16:22:30.671Z,7.68
2023-01-12T16:25:16.810Z,11.93
2023-01-12T16:28:02.939Z,13.48
2023-01-12T16:30:48.735Z,27.77
2023-01-12T16:33:34.462Z,15.57
2023-01-12T16:36:20.042Z,6.88
2023-01-12T16:39:06.556Z,9.70
2023-01-12T16:41:54.741Z,16.42
2023-01-12T16:44:41.099Z,8.63
2023-01-12T16:47:27.175Z,8.70
2023-01-12T16:50:13.206Z,25.17
2023-01-12T16:52:58.688Z,7.05
2023-01-12T16:55:44.543Z,4.97
2023-01-12T16:58:30.175Z,8.02
2023-01-12T17:01:18.801Z,8.48
2023-01-12T17:04:04.876Z,14.77
2023-01-12T17:06:51.432Z,12.23
2023-01-12T17:09:39.308Z,21.83
2023-01-12T17:12:25.265Z,10.23
2023-01-12T17:15:11.417Z,11.48
2023-01-12T17:17:57.719Z,11.30
2023-01-12T17:20:44.187Z,18.05
2023-01-12T17:23:30.295Z,19.63
2023-01-12T17:26:18.243Z,13.00
2023-01-12T17:29:04.418Z,11.98
2023-01-12T17:31:50.222Z,15.73
2023-01-12T17:34:39.021Z,12.85
2023-01-12T17:37:25.098Z,8.88
2023-01-12T17:40:11.683Z,9.90
2023-01-12T17:43:03.456Z,7.22
2023-01-12T17:45:50.764Z,6.38
2023-01-12T17:48:36.799Z,13.95
2023-01-12T17:51:22.450Z,9.98
2023-01-12T17:54:10.916Z,9.52
2023-01-12T17:56:57.155Z,26.88
2023-01-12T17:59:43.411Z,27.23
2023-01-12T18:02:29.439Z,43.22
2023-01-12T18:05:15.340Z,17.38
2023-01-12T18:08:01.136Z,9.27
2023-01-12T18:10:47.111Z,10.60
2023-01-12T18:13:34.585Z,15.07
2023-01-12T18:16:21.087Z,9.30
2023-01-12T18:19:08.966Z,10.13
2023-01-12T18:21:55.078Z,11.18
2023-01-12T18:24:41.153Z,12.35
2023-01-12T18:27:27.232Z,8.82
2023-01-12T18:30:13.820Z,10.65
2023-01-12T18:33:00.091Z,10.40
2023-01-12T18:35:46.329Z,9.18
2023-01-12T18:38:32.210Z,11.40
2023-01-12T18:41:38.035Z,11.40
2023-01-12T18:44:24.907Z,8.18
2023-01-12T18:47:34.818Z,15.48
2023-01-12T18:50:40.296Z,14.38
2023-01-12T18:53:31.873Z,12.55
2023-01-12T18:56:17.948Z,22.05
2023-01-12T18:59:04.492Z,10.02
2023-01-12T19:01:50.845Z,13.02
2023-01-12T19:04:57.911Z,12.10
2023-01-12T19:07:52.945Z,24.63
2023-01-12T19:10:39.042Z,25.88
2023-01-12T19:13:43.323Z,33.58
2023-01-12T19:16:50.051Z,19.92
2023-01-12T19:19:36.255Z,18.85
2023-01-12T19:22:40.979Z,27.65
2023-01-12T19:25:47.146Z,18.73
2023-01-12T19:28:35.503Z,11.32
2023-01-12T19:31:21.515Z,9.20
2023-01-12T19:34:07.130Z,13.98
2023-01-12T19:36:53.085Z,11.52
2023-01-12T19:40:14.111Z,14.20
2023-01-12T19:43:33.683Z,29.23
2023-01-12T19:46:19.623Z,33.83
2023-01-12T19:49:05.485Z,33.40
2023-01-12T19:51:51.250Z,23.60
2023-01-12T19:54:37.183Z,19.20
2023-01-12T19:57:22.879Z,13.45
2023-01-12T20:00:14.336Z,16.15
2023-01-12T20:03:00.519Z,15.43
2023-01-12T20:05:48.023Z,17.55
2023-01-12T20:08:34.235Z,18.35
2023-01-12T20:11:20.097Z,10.95
2023-01-12T20:14:06.149Z,20.63
2023-01-12T20:16:51.899Z,17.13
2023-01-12T20:19:37.814Z,23.45
2023-01-12T20:22:23.655Z,13.07
2023-01-12T20:25:10.374Z,11.48
2023-01-12T20:27:56.149Z,14.07
2023-01-12T20:30:43.303Z,11.43
2023-01-12T20:33:29.807Z,12.70
2023-01-12T20:36:17.336Z,14.00
2023-01-12T20:39:03.665Z,14.88
2023-01-12T20:41:49.653Z,13.50
2023-01-12T20:44:35.642Z,14.95
2023-01-12T20:47:21.795Z,12.85
2023-01-12T20:50:11.981Z,16.33
2023-01-12T20:52:59.778Z,19.45
2023-01-12T20:55:48.630Z,17.20
2023-01-12T20:58:34.500Z,17.08
2023-01-12T21:01:20.895Z,18.02
2023-01-12T21:04:06.790Z,26.25
2023-01-12T21:06:52.711Z,19.17
2023-01-12T21:09:38.841Z,15.88
2023-01-12T21:12:27.271Z,14.90
2023-01-12T21:15:13.623Z,13.30
2023-01-12T21:17:59.673Z,12.65
2023-01-12T21:20:45.324Z,20.15
2023-01-12T21:23:31.184Z,13.00
2023-01-12T21:26:17.245Z,17.92
2023-01-12T21:29:03.370Z,15.80
2023-01-12T21:31:49.480Z,14.07
2023-01-12T21:34:35.265Z,14.27
2023-01-12T21:37:21.428Z,14.63
2023-01-12T21:40:08.518Z,17.50
2023-01-12T21:43:11.965Z,19.27
2023-01-12T21:46:04.385Z,24.03
2023-01-12T21:48:50.189Z,20.50
2023-01-12T21:51:35.952Z,17.50
2023-01-12T21:54:21.743Z,15.18
2023-01-12T21:57:07.645Z,21.42
2023-01-12T21:59:53.999Z,19.65
2023-01-12T22:02:40.232Z,18.45
2023-01-12T22:05:26.112Z,18.75
2023-01-12T22:08:12.039Z,22.77
2023-01-12T22:11:04.807Z,23.70
2023-01-12T22:13:50.743Z,18.30
2023-01-12T22:16:36.546Z,17.25
2023-01-12T22:19:22.181Z,21.85
2023-01-12T22:22:07.947Z,24.05
2023-01-12T22:24:53.586Z,21.77
2023-01-12T22:27:41.670Z,18.23
2023-01-12T22:30:28.002Z,25.33
2023-01-12T22:33:13.748Z,20.13
2023-01-12T22:36:02.029Z,19.40
2023-01-12T22:38:48.102Z,21.85
2023-01-12T22:41:34.374Z,19.40
2023-01-12T22:44:20.176Z,22.33
2023-01-12T22:47:05.793Z,23.08
2023-01-12T22:49:51.607Z,22.13
2023-01-12T22:52:39.250Z,19.60
2023-01-12T22:55:25.613Z,20.08
2023-01-12T22:58:11.665Z,22.08
2023-01-12T23:01:08.892Z,27.15
2023-01-12T23:03:58.537Z,22.73
2023-01-12T23:06:44.231Z,21.02
2023-01-12T23:09:29.949Z,22.48
2023-01-12T23:12:15.711Z,21.35
2023-01-12T23:15:01.205Z,32.45
2023-01-12T23:17:47.001Z,30.70
2023-01-12T23:20:35.719Z,31.60
2023-01-12T23:23:21.325Z,43.50
2023-01-12T23:26:09.016Z,49.58
2023-01-12T23:28:56.876Z,46.08
2023-01-12T23:31:42.382Z,48.35
2023-01-12T23:34:28.965Z,38.60
2023-01-12T23:37:15.000Z,47.63
2023-01-12T23:40:00.772Z,43.78
2023-01-12T23:42:46.362Z,45.35
2023-01-12T23:45:33.396Z,43.10
2023-01-12T23:48:19.121Z,46.08
2023-01-12T23:51:05.222Z,50.05
2023-01-12T23:53:59.804Z,46.58
2023-01-12T23:56:46.181Z,47.22
2023-01-12T23:59:31.869Z,43.65
